Terminal Aerodrome Forecast
Issued by NWS

Home | Current Version | Previous Version | Text Only | Print | Product List | Glossary On
Versions: 1 2 3 4 5 6 7 8 9 10 11 12 13 14 15 16 17 18 19 20 21 22
000
FTUS43 KIND 241120
TAFLAF
TAF
KLAF 241120Z 2412/2512 31004KT P6SM OVC020
     FM242100 VRB03KT P6SM BKN020
     FM242300 11004KT P6SM BKN035
     FM250700 15008KT P6SM BKN040
     FM250900 17009KT P6SM BKN020
     FM251100 18010KT P6SM BKN015
      AMD LTD TO CLD VIS AND WIND TIL 241400=

USA.gov is the U.S. government's official web portal to all federal, state and local government web resources and services.